<?xml version="1.0" encoding="UTF-8" standalone="no" ?>
<gpx xmlns="http://www.topografix.com/GPX/1/1" xmlns:xsi="http://www.w3.org/2001/XMLSchema-instance" xsi:schemaLocation="http://www.topografix.com/GPX/1/1 http://www.topografix.com/GPX/1/1/gpx.xsd" version="1.1" creator="VisuGPX - https://www.visugpx.com">
  <metadata>
    <name>Source du Doubs et mare aux grenouilles</name>
  </metadata>
  <wpt lat="46.70675" lon="6.20898">
    <ele>940</ele>
    <name><![CDATA[Chalet de la Source]]></name>
  </wpt>
  <wpt lat="46.70589" lon="6.20777">
    <ele>937</ele>
    <name><![CDATA[Pont]]></name>
  </wpt>
  <wpt lat="46.70503" lon="6.20914">
    <ele>945</ele>
    <name><![CDATA[Point de passage 3]]></name>
  </wpt>
  <wpt lat="46.70124" lon="6.19425">
    <ele>943</ele>
    <name><![CDATA[Carrefour, route goudonnée]]></name>
  </wpt>
  <wpt lat="46.70538" lon="6.19544">
    <ele>936</ele>
    <name><![CDATA[Bifurcation aller-retour à la mare. Proche du]]></name>
  </wpt>
  <wpt lat="46.71087" lon="6.19888">
    <ele>943</ele>
    <name><![CDATA[Piste à droite]]></name>
  </wpt>
  <wpt lat="46.70675" lon="6.20899">
    <ele>940</ele>
    <name><![CDATA[Chalet de la Source]]></name>
  </wpt>
  <trk>
    <name><![CDATA[Source du Doubs et mare aux grenouilles]]></name>
    <extensions>
      <line xmlns="http://www.topografix.com/GPX/gpx_style/0/2">
        <color>0000FF</color>
        <width>4</width>
      </line>
    </extensions>
    <trkseg>
      <trkpt lat="46.70675" lon="6.20898">
        <ele>940</ele>
        <time>2026-01-08T16:26:52.000Z</time>
      </trkpt>
      <trkpt lat="46.70589" lon="6.20777">
        <ele>937</ele>
        <time>2026-01-08T16:29:09.000Z</time>
      </trkpt>
      <trkpt lat="46.70551" lon="6.20832">
        <ele>938</ele>
        <time>2026-01-08T16:30:21.000Z</time>
      </trkpt>
      <trkpt lat="46.70538" lon="6.20853">
        <ele>939</ele>
        <time>2026-01-08T16:30:53.000Z</time>
      </trkpt>
      <trkpt lat="46.70517" lon="6.20887">
        <ele>941</ele>
        <time>2026-01-08T16:31:50.000Z</time>
      </trkpt>
      <trkpt lat="46.70503" lon="6.20914">
        <ele>945</ele>
        <time>2026-01-08T16:32:57.000Z</time>
      </trkpt>
      <trkpt lat="46.70521" lon="6.20912">
        <ele>945</ele>
        <time>2026-01-08T16:33:17.000Z</time>
      </trkpt>
      <trkpt lat="46.70559" lon="6.20865">
        <ele>944</ele>
        <time>2026-01-08T16:34:14.000Z</time>
      </trkpt>
      <trkpt lat="46.70584" lon="6.20845">
        <ele>940</ele>
        <time>2026-01-08T16:34:47.000Z</time>
      </trkpt>
      <trkpt lat="46.70627" lon="6.20833">
        <ele>938</ele>
        <time>2026-01-08T16:35:36.000Z</time>
      </trkpt>
      <trkpt lat="46.70563" lon="6.20735">
        <ele>937</ele>
        <time>2026-01-08T16:37:22.000Z</time>
      </trkpt>
      <trkpt lat="46.70549" lon="6.20671">
        <ele>938</ele>
        <time>2026-01-08T16:38:26.000Z</time>
      </trkpt>
      <trkpt lat="46.70531" lon="6.2058">
        <ele>938</ele>
        <time>2026-01-08T16:39:40.000Z</time>
      </trkpt>
      <trkpt lat="46.70526" lon="6.20568">
        <ele>938</ele>
        <time>2026-01-08T16:39:51.000Z</time>
      </trkpt>
      <trkpt lat="46.70506" lon="6.20511">
        <ele>939</ele>
        <time>2026-01-08T16:40:52.000Z</time>
      </trkpt>
      <trkpt lat="46.70477" lon="6.20387">
        <ele>938</ele>
        <time>2026-01-08T16:42:35.000Z</time>
      </trkpt>
      <trkpt lat="46.70429" lon="6.20287">
        <ele>937</ele>
        <time>2026-01-08T16:44:11.000Z</time>
      </trkpt>
      <trkpt lat="46.70362" lon="6.20029">
        <ele>937</ele>
        <time>2026-01-08T16:47:47.000Z</time>
      </trkpt>
      <trkpt lat="46.70287" lon="6.19836">
        <ele>937</ele>
        <time>2026-01-08T16:50:41.000Z</time>
      </trkpt>
      <trkpt lat="46.70262" lon="6.1974">
        <ele>937</ele>
        <time>2026-01-08T16:52:02.000Z</time>
      </trkpt>
      <trkpt lat="46.70209" lon="6.19629">
        <ele>940</ele>
        <time>2026-01-08T16:54:18.000Z</time>
      </trkpt>
      <trkpt lat="46.70165" lon="6.19524">
        <ele>942</ele>
        <time>2026-01-08T16:56:15.000Z</time>
      </trkpt>
      <trkpt lat="46.70124" lon="6.19425">
        <ele>943</ele>
        <time>2026-01-08T16:57:56.000Z</time>
      </trkpt>
      <trkpt lat="46.70225" lon="6.19253">
        <ele>938</ele>
        <time>2026-01-08T17:00:54.000Z</time>
      </trkpt>
      <trkpt lat="46.70309" lon="6.19349">
        <ele>937</ele>
        <time>2026-01-08T17:02:56.000Z</time>
      </trkpt>
      <trkpt lat="46.70372" lon="6.19409">
        <ele>936</ele>
        <time>2026-01-08T17:04:22.000Z</time>
      </trkpt>
      <trkpt lat="46.70426" lon="6.19421">
        <ele>936</ele>
        <time>2026-01-08T17:05:25.000Z</time>
      </trkpt>
      <trkpt lat="46.7048" lon="6.19446">
        <ele>935</ele>
        <time>2026-01-08T17:06:29.000Z</time>
      </trkpt>
      <trkpt lat="46.70501" lon="6.19483">
        <ele>936</ele>
        <time>2026-01-08T17:07:17.000Z</time>
      </trkpt>
      <trkpt lat="46.70538" lon="6.19544">
        <ele>936</ele>
        <time>2026-01-08T17:08:21.000Z</time>
      </trkpt>
      <trkpt lat="46.7044" lon="6.19587">
        <ele>936</ele>
        <time>2026-01-08T17:10:17.000Z</time>
      </trkpt>
      <trkpt lat="46.70484" lon="6.19692">
        <ele>936</ele>
        <time>2026-01-08T17:11:53.000Z</time>
      </trkpt>
      <trkpt lat="46.70439" lon="6.19587">
        <ele>936</ele>
        <time>2026-01-08T17:13:30.000Z</time>
      </trkpt>
      <trkpt lat="46.70538" lon="6.19547">
        <ele>936</ele>
        <time>2026-01-08T17:15:27.000Z</time>
      </trkpt>
      <trkpt lat="46.70677" lon="6.19507">
        <ele>936</ele>
        <time>2026-01-08T17:18:09.000Z</time>
      </trkpt>
      <trkpt lat="46.70753" lon="6.19463">
        <ele>935</ele>
        <time>2026-01-08T17:19:43.000Z</time>
      </trkpt>
      <trkpt lat="46.70772" lon="6.19452">
        <ele>934</ele>
        <time>2026-01-08T17:20:06.000Z</time>
      </trkpt>
      <trkpt lat="46.70813" lon="6.19437">
        <ele>934</ele>
        <time>2026-01-08T17:20:54.000Z</time>
      </trkpt>
      <trkpt lat="46.70865" lon="6.19468">
        <ele>933</ele>
        <time>2026-01-08T17:21:59.000Z</time>
      </trkpt>
      <trkpt lat="46.7093" lon="6.19484">
        <ele>934</ele>
        <time>2026-01-08T17:23:25.000Z</time>
      </trkpt>
      <trkpt lat="46.70951" lon="6.1951">
        <ele>935</ele>
        <time>2026-01-08T17:24:07.000Z</time>
      </trkpt>
      <trkpt lat="46.70963" lon="6.19551">
        <ele>936</ele>
        <time>2026-01-08T17:24:52.000Z</time>
      </trkpt>
      <trkpt lat="46.70983" lon="6.19595">
        <ele>937</ele>
        <time>2026-01-08T17:25:44.000Z</time>
      </trkpt>
      <trkpt lat="46.70999" lon="6.19601">
        <ele>937</ele>
        <time>2026-01-08T17:26:03.000Z</time>
      </trkpt>
      <trkpt lat="46.71001" lon="6.19668">
        <ele>939</ele>
        <time>2026-01-08T17:27:16.000Z</time>
      </trkpt>
      <trkpt lat="46.71007" lon="6.19732">
        <ele>940</ele>
        <time>2026-01-08T17:28:17.000Z</time>
      </trkpt>
      <trkpt lat="46.71055" lon="6.19832">
        <ele>941</ele>
        <time>2026-01-08T17:30:03.000Z</time>
      </trkpt>
      <trkpt lat="46.71087" lon="6.19888">
        <ele>943</ele>
        <time>2026-01-08T17:31:21.000Z</time>
      </trkpt>
      <trkpt lat="46.71065" lon="6.19913">
        <ele>942</ele>
        <time>2026-01-08T17:31:53.000Z</time>
      </trkpt>
      <trkpt lat="46.7103" lon="6.19908">
        <ele>941</ele>
        <time>2026-01-08T17:32:34.000Z</time>
      </trkpt>
      <trkpt lat="46.71002" lon="6.19946">
        <ele>942</ele>
        <time>2026-01-08T17:33:28.000Z</time>
      </trkpt>
      <trkpt lat="46.70975" lon="6.19945">
        <ele>940</ele>
        <time>2026-01-08T17:33:59.000Z</time>
      </trkpt>
      <trkpt lat="46.70836" lon="6.20121">
        <ele>934</ele>
        <time>2026-01-08T17:37:30.000Z</time>
      </trkpt>
      <trkpt lat="46.70829" lon="6.20211">
        <ele>934</ele>
        <time>2026-01-08T17:38:41.000Z</time>
      </trkpt>
      <trkpt lat="46.7081" lon="6.20265">
        <ele>933</ele>
        <time>2026-01-08T17:39:29.000Z</time>
      </trkpt>
      <trkpt lat="46.70817" lon="6.20372">
        <ele>935</ele>
        <time>2026-01-08T17:41:13.000Z</time>
      </trkpt>
      <trkpt lat="46.70805" lon="6.20516">
        <ele>936</ele>
        <time>2026-01-08T17:43:18.000Z</time>
      </trkpt>
      <trkpt lat="46.70801" lon="6.2057">
        <ele>937</ele>
        <time>2026-01-08T17:44:11.000Z</time>
      </trkpt>
      <trkpt lat="46.70763" lon="6.2064">
        <ele>936</ele>
        <time>2026-01-08T17:45:21.000Z</time>
      </trkpt>
      <trkpt lat="46.70705" lon="6.20734">
        <ele>935</ele>
        <time>2026-01-08T17:47:01.000Z</time>
      </trkpt>
      <trkpt lat="46.70678" lon="6.20757">
        <ele>936</ele>
        <time>2026-01-08T17:47:46.000Z</time>
      </trkpt>
      <trkpt lat="46.70634" lon="6.20745">
        <ele>937</ele>
        <time>2026-01-08T17:48:48.000Z</time>
      </trkpt>
      <trkpt lat="46.70612" lon="6.20758">
        <ele>937</ele>
        <time>2026-01-08T17:49:15.000Z</time>
      </trkpt>
      <trkpt lat="46.70591" lon="6.20775">
        <ele>937</ele>
        <time>2026-01-08T17:49:42.000Z</time>
      </trkpt>
      <trkpt lat="46.70625" lon="6.20833">
        <ele>938</ele>
        <time>2026-01-08T17:50:53.000Z</time>
      </trkpt>
      <trkpt lat="46.70675" lon="6.20899">
        <ele>940</ele>
        <time>2026-01-08T17:52:30.000Z</time>
      </trkpt>
    </trkseg>
  </trk>
</gpx>